sensor_id;sensor_type;location;lat;lon;timestamp;P1;durP1;ratioP1;P2;durP2;ratioP2
24685;SDS011;12804;51.176;4.452;2023-04-25T00:01:31;15.27;;;2.97;;
24685;SDS011;12804;51.176;4.452;2023-04-25T00:03:58;13.20;;;2.50;;
24685;SDS011;12804;51.176;4.452;2023-04-25T00:06:25;15.00;;;2.80;;
24685;SDS011;12804;51.176;4.452;2023-04-25T00:08:52;7.13;;;2.47;;
24685;SDS011;12804;51.176;4.452;2023-04-25T00:11:18;10.18;;;2.70;;
24685;SDS011;12804;51.176;4.452;2023-04-25T00:13:44;13.50;;;3.03;;
24685;SDS011;12804;51.176;4.452;2023-04-25T00:16:11;12.77;;;2.63;;
24685;SDS011;12804;51.176;4.452;2023-04-25T00:18:39;11.68;;;2.67;;
24685;SDS011;12804;51.176;4.452;2023-04-25T00:21:05;11.70;;;2.80;;
24685;SDS011;12804;51.176;4.452;2023-04-25T00:23:31;8.35;;;2.78;;
24685;SDS011;12804;51.176;4.452;2023-04-25T00:25:57;10.15;;;2.40;;
24685;SDS011;12804;51.176;4.452;2023-04-25T00:28:23;13.07;;;2.60;;
24685;SDS011;12804;51.176;4.452;2023-04-25T00:30:48;13.07;;;2.92;;
24685;SDS011;12804;51.176;4.452;2023-04-25T00:33:15;14.88;;;3.28;;
24685;SDS011;12804;51.176;4.452;2023-04-25T00:35:41;11.48;;;2.83;;
24685;SDS011;12804;51.176;4.452;2023-04-25T00:38:07;11.30;;;2.47;;
24685;SDS011;12804;51.176;4.452;2023-04-25T00:40:33;14.55;;;2.95;;
24685;SDS011;12804;51.176;4.452;2023-04-25T00:43:00;11.20;;;2.97;;
24685;SDS011;12804;51.176;4.452;2023-04-25T00:45:29;12.60;;;3.50;;
24685;SDS011;12804;51.176;4.452;2023-04-25T00:47:55;16.40;;;3.22;;
24685;SDS011;12804;51.176;4.452;2023-04-25T00:50:22;8.98;;;2.55;;
24685;SDS011;12804;51.176;4.452;2023-04-25T00:52:48;7.93;;;2.47;;
24685;SDS011;12804;51.176;4.452;2023-04-25T00:55:14;8.35;;;2.65;;
24685;SDS011;12804;51.176;4.452;2023-04-25T00:57:41;13.55;;;2.72;;
24685;SDS011;12804;51.176;4.452;2023-04-25T01:00:08;8.75;;;2.65;;
24685;SDS011;12804;51.176;4.452;2023-04-25T01:02:36;9.13;;;2.95;;
24685;SDS011;12804;51.176;4.452;2023-04-25T01:05:02;9.05;;;2.30;;
24685;SDS011;12804;51.176;4.452;2023-04-25T01:07:29;14.13;;;2.60;;
24685;SDS011;12804;51.176;4.452;2023-04-25T01:09:55;9.15;;;2.58;;
24685;SDS011;12804;51.176;4.452;2023-04-25T01:12:22;13.50;;;3.20;;
24685;SDS011;12804;51.176;4.452;2023-04-25T01:14:48;15.85;;;3.00;;
24685;SDS011;12804;51.176;4.452;2023-04-25T01:17:15;11.82;;;3.10;;
24685;SDS011;12804;51.176;4.452;2023-04-25T01:19:41;14.80;;;2.92;;
24685;SDS011;12804;51.176;4.452;2023-04-25T01:22:07;16.67;;;3.25;;
24685;SDS011;12804;51.176;4.452;2023-04-25T01:24:35;9.68;;;2.08;;
24685;SDS011;12804;51.176;4.452;2023-04-25T01:27:02;8.63;;;3.25;;
24685;SDS011;12804;51.176;4.452;2023-04-25T01:29:28;14.95;;;3.08;;
24685;SDS011;12804;51.176;4.452;2023-04-25T01:31:56;17.20;;;3.53;;
24685;SDS011;12804;51.176;4.452;2023-04-25T01:34:23;13.32;;;3.35;;
24685;SDS011;12804;51.176;4.452;2023-04-25T01:36:50;9.90;;;2.97;;
24685;SDS011;12804;51.176;4.452;2023-04-25T01:39:17;12.82;;;3.30;;
24685;SDS011;12804;51.176;4.452;2023-04-25T01:41:44;11.70;;;3.05;;
24685;SDS011;12804;51.176;4.452;2023-04-25T01:44:13;13.32;;;3.20;;
24685;SDS011;12804;51.176;4.452;2023-04-25T01:46:39;13.88;;;3.10;;
24685;SDS011;12804;51.176;4.452;2023-04-25T01:49:06;16.58;;;3.17;;
24685;SDS011;12804;51.176;4.452;2023-04-25T01:51:32;12.23;;;3.05;;
24685;SDS011;12804;51.176;4.452;2023-04-25T01:53:58;13.23;;;3.13;;
24685;SDS011;12804;51.176;4.452;2023-04-25T01:56:29;13.15;;;3.75;;
24685;SDS011;12804;51.176;4.452;2023-04-25T01:58:56;11.95;;;2.85;;
24685;SDS011;12804;51.176;4.452;2023-04-25T02:01:42;14.50;;;3.47;;
24685;SDS011;12804;51.176;4.452;2023-04-25T02:04:19;16.88;;;3.78;;
24685;SDS011;12804;51.176;4.452;2023-04-25T02:06:45;12.77;;;3.55;;
24685;SDS011;12804;51.176;4.452;2023-04-25T02:09:11;13.10;;;3.63;;
24685;SDS011;12804;51.176;4.452;2023-04-25T02:11:42;14.82;;;3.42;;
24685;SDS011;12804;51.176;4.452;2023-04-25T02:14:23;15.32;;;3.67;;
24685;SDS011;12804;51.176;4.452;2023-04-25T02:17:04;12.68;;;3.22;;
24685;SDS011;12804;51.176;4.452;2023-04-25T02:19:30;17.08;;;3.90;;
24685;SDS011;12804;51.176;4.452;2023-04-25T02:21:56;10.05;;;3.50;;
24685;SDS011;12804;51.176;4.452;2023-04-25T02:24:23;10.77;;;3.38;;
24685;SDS011;12804;51.176;4.452;2023-04-25T02:26:49;16.05;;;3.95;;
24685;SDS011;12804;51.176;4.452;2023-04-25T02:29:15;17.50;;;3.40;;
24685;SDS011;12804;51.176;4.452;2023-04-25T02:31:41;11.48;;;3.70;;
24685;SDS011;12804;51.176;4.452;2023-04-25T02:34:07;16.50;;;4.03;;
24685;SDS011;12804;51.176;4.452;2023-04-25T02:36:35;16.63;;;4.07;;
24685;SDS011;12804;51.176;4.452;2023-04-25T02:39:01;13.02;;;3.60;;
24685;SDS011;12804;51.176;4.452;2023-04-25T02:41:28;14.32;;;3.80;;
24685;SDS011;12804;51.176;4.452;2023-04-25T02:43:54;17.75;;;4.70;;
24685;SDS011;12804;51.176;4.452;2023-04-25T02:46:20;16.55;;;4.47;;
24685;SDS011;12804;51.176;4.452;2023-04-25T02:48:46;13.65;;;4.28;;
24685;SDS011;12804;51.176;4.452;2023-04-25T02:51:12;14.23;;;3.90;;
24685;SDS011;12804;51.176;4.452;2023-04-25T02:53:38;12.57;;;4.13;;
24685;SDS011;12804;51.176;4.452;2023-04-25T02:56:04;12.45;;;3.78;;
24685;SDS011;12804;51.176;4.452;2023-04-25T02:58:30;15.75;;;4.00;;
24685;SDS011;12804;51.176;4.452;2023-04-25T03:00:56;17.92;;;4.78;;
24685;SDS011;12804;51.176;4.452;2023-04-25T03:03:22;18.27;;;4.50;;
24685;SDS011;12804;51.176;4.452;2023-04-25T03:05:48;15.20;;;4.55;;
24685;SDS011;12804;51.176;4.452;2023-04-25T03:08:18;12.05;;;4.22;;
24685;SDS011;12804;51.176;4.452;2023-04-25T03:10:44;17.88;;;4.70;;
24685;SDS011;12804;51.176;4.452;2023-04-25T03:13:12;19.35;;;4.78;;
24685;SDS011;12804;51.176;4.452;2023-04-25T03:15:40;17.13;;;4.72;;
24685;SDS011;12804;51.176;4.452;2023-04-25T03:18:06;11.93;;;4.80;;
24685;SDS011;12804;51.176;4.452;2023-04-25T03:20:32;14.98;;;4.55;;
24685;SDS011;12804;51.176;4.452;2023-04-25T03:22:58;15.13;;;4.80;;
24685;SDS011;12804;51.176;4.452;2023-04-25T03:25:24;15.85;;;4.55;;
24685;SDS011;12804;51.176;4.452;2023-04-25T03:27:50;16.00;;;4.95;;
24685;SDS011;12804;51.176;4.452;2023-04-25T03:30:16;17.52;;;4.75;;
24685;SDS011;12804;51.176;4.452;2023-04-25T03:32:43;8.85;;;3.97;;
24685;SDS011;12804;51.176;4.452;2023-04-25T03:35:12;16.15;;;5.03;;
24685;SDS011;12804;51.176;4.452;2023-04-25T03:37:38;11.88;;;4.45;;
24685;SDS011;12804;51.176;4.452;2023-04-25T03:40:06;13.57;;;4.10;;
24685;SDS011;12804;51.176;4.452;2023-04-25T03:42:52;12.65;;;4.40;;
24685;SDS011;12804;51.176;4.452;2023-04-25T03:45:18;16.60;;;4.28;;
24685;SDS011;12804;51.176;4.452;2023-04-25T03:47:44;15.23;;;4.32;;
24685;SDS011;12804;51.176;4.452;2023-04-25T03:50:10;16.80;;;4.15;;
24685;SDS011;12804;51.176;4.452;2023-04-25T03:52:36;11.38;;;3.67;;
24685;SDS011;12804;51.176;4.452;2023-04-25T03:55:02;15.60;;;4.18;;
24685;SDS011;12804;51.176;4.452;2023-04-25T03:57:29;19.08;;;4.00;;
24685;SDS011;12804;51.176;4.452;2023-04-25T03:59:55;13.60;;;4.10;;
24685;SDS011;12804;51.176;4.452;2023-04-25T04:02:21;15.07;;;4.03;;
24685;SDS011;12804;51.176;4.452;2023-04-25T04:04:48;15.10;;;4.78;;
24685;SDS011;12804;51.176;4.452;2023-04-25T04:07:14;13.85;;;4.10;;
24685;SDS011;12804;51.176;4.452;2023-04-25T04:09:44;19.42;;;4.70;;
24685;SDS011;12804;51.176;4.452;2023-04-25T04:12:16;21.35;;;4.53;;
24685;SDS011;12804;51.176;4.452;2023-04-25T04:14:42;15.95;;;3.92;;
24685;SDS011;12804;51.176;4.452;2023-04-25T04:17:08;12.15;;;4.07;;
24685;SDS011;12804;51.176;4.452;2023-04-25T04:19:34;14.25;;;4.20;;
24685;SDS011;12804;51.176;4.452;2023-04-25T04:22:10;17.73;;;4.57;;
24685;SDS011;12804;51.176;4.452;2023-04-25T04:24:37;13.68;;;3.78;;
24685;SDS011;12804;51.176;4.452;2023-04-25T04:27:05;14.38;;;3.72;;
24685;SDS011;12804;51.176;4.452;2023-04-25T04:29:35;14.07;;;3.15;;
24685;SDS011;12804;51.176;4.452;2023-04-25T04:32:13;7.65;;;3.22;;
24685;SDS011;12804;51.176;4.452;2023-04-25T04:34:39;7.90;;;3.05;;
24685;SDS011;12804;51.176;4.452;2023-04-25T04:37:06;10.40;;;3.13;;
24685;SDS011;12804;51.176;4.452;2023-04-25T04:39:33;13.43;;;3.30;;
24685;SDS011;12804;51.176;4.452;2023-04-25T04:42:08;7.82;;;3.22;;
24685;SDS011;12804;51.176;4.452;2023-04-25T04:44:57;9.32;;;3.20;;
24685;SDS011;12804;51.176;4.452;2023-04-25T04:47:32;9.63;;;3.03;;
24685;SDS011;12804;51.176;4.452;2023-04-25T04:50:17;10.07;;;2.65;;
24685;SDS011;12804;51.176;4.452;2023-04-25T04:53:12;8.70;;;2.58;;
24685;SDS011;12804;51.176;4.452;2023-04-25T04:56:01;11.77;;;3.15;;
24685;SDS011;12804;51.176;4.452;2023-04-25T04:58:47;7.10;;;2.70;;
24685;SDS011;12804;51.176;4.452;2023-04-25T05:01:43;9.23;;;3.35;;
24685;SDS011;12804;51.176;4.452;2023-04-25T05:04:44;11.32;;;3.45;;
24685;SDS011;12804;51.176;4.452;2023-04-25T05:07:45;13.52;;;3.15;;
24685;SDS011;12804;51.176;4.452;2023-04-25T05:13:14;16.85;;;2.90;;
24685;SDS011;12804;51.176;4.452;2023-04-25T05:16:16;9.07;;;2.85;;
24685;SDS011;12804;51.176;4.452;2023-04-25T05:18:50;11.70;;;3.28;;
24685;SDS011;12804;51.176;4.452;2023-04-25T05:21:36;11.18;;;3.20;;
24685;SDS011;12804;51.176;4.452;2023-04-25T05:24:16;12.35;;;3.08;;
24685;SDS011;12804;51.176;4.452;2023-04-25T05:27:02;12.93;;;3.00;;
24685;SDS011;12804;51.176;4.452;2023-04-25T05:29:44;13.25;;;3.22;;
24685;SDS011;12804;51.176;4.452;2023-04-25T05:32:16;14.05;;;3.03;;
24685;SDS011;12804;51.176;4.452;2023-04-25T05:34:44;14.55;;;3.05;;
24685;SDS011;12804;51.176;4.452;2023-04-25T05:37:19;15.38;;;3.58;;
24685;SDS011;12804;51.176;4.452;2023-04-25T05:39:53;17.98;;;4.13;;
24685;SDS011;12804;51.176;4.452;2023-04-25T05:42:35;13.93;;;3.55;;
24685;SDS011;12804;51.176;4.452;2023-04-25T05:45:27;14.30;;;3.73;;
24685;SDS011;12804;51.176;4.452;2023-04-25T05:48:07;16.63;;;3.90;;
24685;SDS011;12804;51.176;4.452;2023-04-25T05:50:56;15.02;;;3.63;;
24685;SDS011;12804;51.176;4.452;2023-04-25T05:53:46;13.05;;;3.33;;
24685;SDS011;12804;51.176;4.452;2023-04-25T05:56:13;10.70;;;3.20;;
24685;SDS011;12804;51.176;4.452;2023-04-25T05:58:39;13.88;;;3.72;;
24685;SDS011;12804;51.176;4.452;2023-04-25T06:01:06;15.05;;;4.00;;
24685;SDS011;12804;51.176;4.452;2023-04-25T06:03:32;11.60;;;3.38;;
24685;SDS011;12804;51.176;4.452;2023-04-25T06:05:58;16.98;;;3.08;;
24685;SDS011;12804;51.176;4.452;2023-04-25T06:08:24;12.68;;;2.90;;
24685;SDS011;12804;51.176;4.452;2023-04-25T06:10:50;8.32;;;3.20;;
24685;SDS011;12804;51.176;4.452;2023-04-25T06:13:17;10.63;;;3.03;;
24685;SDS011;12804;51.176;4.452;2023-04-25T06:15:43;10.88;;;2.63;;
24685;SDS011;12804;51.176;4.452;2023-04-25T06:18:10;8.07;;;2.72;;
24685;SDS011;12804;51.176;4.452;2023-04-25T06:20:36;10.27;;;3.13;;
24685;SDS011;12804;51.176;4.452;2023-04-25T06:23:02;6.40;;;2.33;;
24685;SDS011;12804;51.176;4.452;2023-04-25T06:25:57;12.18;;;2.50;;
24685;SDS011;12804;51.176;4.452;2023-04-25T06:28:25;9.95;;;2.00;;
24685;SDS011;12804;51.176;4.452;2023-04-25T06:30:51;10.05;;;2.10;;
24685;SDS011;12804;51.176;4.452;2023-04-25T06:33:18;7.80;;;2.42;;
24685;SDS011;12804;51.176;4.452;2023-04-25T06:35:45;8.88;;;2.33;;
24685;SDS011;12804;51.176;4.452;2023-04-25T06:38:13;11.40;;;2.63;;
24685;SDS011;12804;51.176;4.452;2023-04-25T06:40:44;11.10;;;2.42;;
24685;SDS011;12804;51.176;4.452;2023-04-25T06:43:10;9.80;;;2.72;;
24685;SDS011;12804;51.176;4.452;2023-04-25T06:46:09;8.80;;;2.35;;
24685;SDS011;12804;51.176;4.452;2023-04-25T06:48:41;11.20;;;2.53;;
24685;SDS011;12804;51.176;4.452;2023-04-25T06:51:07;7.00;;;2.03;;
24685;SDS011;12804;51.176;4.452;2023-04-25T06:53:34;10.13;;;2.08;;
24685;SDS011;12804;51.176;4.452;2023-04-25T06:56:03;10.55;;;2.25;;
24685;SDS011;12804;51.176;4.452;2023-04-25T06:58:49;9.57;;;2.05;;
24685;SDS011;12804;51.176;4.452;2023-04-25T07:01:23;9.43;;;2.50;;
24685;SDS011;12804;51.176;4.452;2023-04-25T07:03:49;13.20;;;2.58;;
24685;SDS011;12804;51.176;4.452;2023-04-25T07:06:17;7.03;;;2.20;;
24685;SDS011;12804;51.176;4.452;2023-04-25T07:08:43;6.97;;;1.88;;
24685;SDS011;12804;51.176;4.452;2023-04-25T07:11:09;7.95;;;1.90;;
24685;SDS011;12804;51.176;4.452;2023-04-25T07:13:36;10.15;;;1.98;;
24685;SDS011;12804;51.176;4.452;2023-04-25T07:16:02;7.22;;;1.90;;
24685;SDS011;12804;51.176;4.452;2023-04-25T07:18:30;11.90;;;2.10;;
24685;SDS011;12804;51.176;4.452;2023-04-25T07:20:55;7.05;;;1.77;;
24685;SDS011;12804;51.176;4.452;2023-04-25T07:23:22;9.02;;;1.73;;
24685;SDS011;12804;51.176;4.452;2023-04-25T07:25:48;12.95;;;2.08;;
24685;SDS011;12804;51.176;4.452;2023-04-25T07:28:19;7.93;;;2.30;;
24685;SDS011;12804;51.176;4.452;2023-04-25T07:30:46;9.38;;;2.08;;
24685;SDS011;12804;51.176;4.452;2023-04-25T07:33:12;10.20;;;1.98;;
24685;SDS011;12804;51.176;4.452;2023-04-25T07:35:38;7.55;;;2.10;;
24685;SDS011;12804;51.176;4.452;2023-04-25T07:38:05;9.18;;;2.20;;
24685;SDS011;12804;51.176;4.452;2023-04-25T07:40:32;9.05;;;2.08;;
24685;SDS011;12804;51.176;4.452;2023-04-25T07:43:04;10.32;;;1.90;;
24685;SDS011;12804;51.176;4.452;2023-04-25T07:45:37;10.68;;;2.25;;
24685;SDS011;12804;51.176;4.452;2023-04-25T07:48:03;13.73;;;2.38;;
24685;SDS011;12804;51.176;4.452;2023-04-25T07:50:31;10.35;;;2.05;;
24685;SDS011;12804;51.176;4.452;2023-04-25T07:52:57;7.72;;;2.08;;
24685;SDS011;12804;51.176;4.452;2023-04-25T07:55:29;7.28;;;2.03;;
24685;SDS011;12804;51.176;4.452;2023-04-25T07:58:04;14.75;;;2.33;;
24685;SDS011;12804;51.176;4.452;2023-04-25T08:00:31;12.48;;;2.17;;
24685;SDS011;12804;51.176;4.452;2023-04-25T08:03:17;7.22;;;1.45;;
24685;SDS011;12804;51.176;4.452;2023-04-25T08:05:43;9.60;;;2.03;;
24685;SDS011;12804;51.176;4.452;2023-04-25T08:08:09;10.10;;;2.00;;
24685;SDS011;12804;51.176;4.452;2023-04-25T08:10:35;7.85;;;2.22;;
24685;SDS011;12804;51.176;4.452;2023-04-25T08:13:01;8.02;;;1.70;;
24685;SDS011;12804;51.176;4.452;2023-04-25T08:15:26;7.10;;;2.05;;
24685;SDS011;12804;51.176;4.452;2023-04-25T08:17:53;4.28;;;1.20;;
24685;SDS011;12804;51.176;4.452;2023-04-25T08:20:19;5.97;;;1.10;;
24685;SDS011;12804;51.176;4.452;2023-04-25T08:22:45;6.88;;;0.95;;
24685;SDS011;12804;51.176;4.452;2023-04-25T08:25:34;5.53;;;1.10;;
24685;SDS011;12804;51.176;4.452;2023-04-25T08:28:01;4.57;;;1.00;;
24685;SDS011;12804;51.176;4.452;2023-04-25T08:30:29;4.03;;;1.20;;
24685;SDS011;12804;51.176;4.452;2023-04-25T08:32:55;6.55;;;1.40;;
24685;SDS011;12804;51.176;4.452;2023-04-25T08:35:32;3.22;;;1.00;;
24685;SDS011;12804;51.176;4.452;2023-04-25T08:37:59;5.25;;;1.45;;
24685;SDS011;12804;51.176;4.452;2023-04-25T08:40:27;4.50;;;1.08;;
24685;SDS011;12804;51.176;4.452;2023-04-25T08:43:01;4.65;;;1.30;;
24685;SDS011;12804;51.176;4.452;2023-04-25T08:45:29;4.55;;;1.10;;
24685;SDS011;12804;51.176;4.452;2023-04-25T08:47:57;4.43;;;1.15;;
24685;SDS011;12804;51.176;4.452;2023-04-25T08:50:24;6.00;;;1.50;;
24685;SDS011;12804;51.176;4.452;2023-04-25T08:52:52;5.13;;;1.27;;
24685;SDS011;12804;51.176;4.452;2023-04-25T08:55:20;8.68;;;1.58;;
24685;SDS011;12804;51.176;4.452;2023-04-25T08:57:49;4.35;;;1.40;;
24685;SDS011;12804;51.176;4.452;2023-04-25T09:00:16;2.97;;;0.90;;
24685;SDS011;12804;51.176;4.452;2023-04-25T09:02:43;6.28;;;1.20;;
24685;SDS011;12804;51.176;4.452;2023-04-25T09:05:11;3.85;;;1.17;;
24685;SDS011;12804;51.176;4.452;2023-04-25T09:07:39;4.20;;;1.15;;
24685;SDS011;12804;51.176;4.452;2023-04-25T09:10:06;4.22;;;1.10;;
24685;SDS011;12804;51.176;4.452;2023-04-25T09:12:35;3.35;;;1.08;;
24685;SDS011;12804;51.176;4.452;2023-04-25T09:15:09;10.15;;;1.70;;
24685;SDS011;12804;51.176;4.452;2023-04-25T09:18:03;5.40;;;1.30;;
24685;SDS011;12804;51.176;4.452;2023-04-25T09:20:42;5.05;;;1.33;;
24685;SDS011;12804;51.176;4.452;2023-04-25T09:25:37;3.92;;;0.93;;
24685;SDS011;12804;51.176;4.452;2023-04-25T09:28:06;3.78;;;1.10;;
24685;SDS011;12804;51.176;4.452;2023-04-25T09:30:33;4.32;;;1.20;;
24685;SDS011;12804;51.176;4.452;2023-04-25T09:33:32;6.90;;;1.40;;
24685;SDS011;12804;51.176;4.452;2023-04-25T09:36:07;4.85;;;1.50;;
24685;SDS011;12804;51.176;4.452;2023-04-25T09:38:59;4.70;;;1.17;;
24685;SDS011;12804;51.176;4.452;2023-04-25T09:41:32;4.30;;;1.15;;
24685;SDS011;12804;51.176;4.452;2023-04-25T09:44:03;4.93;;;0.90;;
24685;SDS011;12804;51.176;4.452;2023-04-25T09:46:35;2.83;;;0.80;;
24685;SDS011;12804;51.176;4.452;2023-04-25T09:49:08;4.03;;;0.77;;
24685;SDS011;12804;51.176;4.452;2023-04-25T09:51:54;6.20;;;0.90;;
24685;SDS011;12804;51.176;4.452;2023-04-25T09:54:22;6.25;;;1.40;;
24685;SDS011;12804;51.176;4.452;2023-04-25T09:56:55;3.63;;;1.00;;
24685;SDS011;12804;51.176;4.452;2023-04-25T09:59:22;5.55;;;1.05;;
24685;SDS011;12804;51.176;4.452;2023-04-25T10:01:48;4.55;;;1.00;;
24685;SDS011;12804;51.176;4.452;2023-04-25T10:04:26;5.25;;;1.30;;
24685;SDS011;12804;51.176;4.452;2023-04-25T10:07:08;4.25;;;0.90;;
24685;SDS011;12804;51.176;4.452;2023-04-25T10:09:38;4.03;;;1.10;;
24685;SDS011;12804;51.176;4.452;2023-04-25T10:12:05;5.00;;;0.73;;
24685;SDS011;12804;51.176;4.452;2023-04-25T10:14:33;4.18;;;0.93;;
24685;SDS011;12804;51.176;4.452;2023-04-25T10:17:00;9.05;;;1.40;;
24685;SDS011;12804;51.176;4.452;2023-04-25T10:19:26;6.18;;;0.85;;
24685;SDS011;12804;51.176;4.452;2023-04-25T10:21:55;5.75;;;0.98;;
24685;SDS011;12804;51.176;4.452;2023-04-25T10:24:46;5.90;;;0.77;;
24685;SDS011;12804;51.176;4.452;2023-04-25T10:27:13;4.93;;;1.10;;
24685;SDS011;12804;51.176;4.452;2023-04-25T10:29:39;6.10;;;1.13;;
24685;SDS011;12804;51.176;4.452;2023-04-25T10:32:08;6.75;;;1.13;;
24685;SDS011;12804;51.176;4.452;2023-04-25T10:34:43;8.63;;;1.38;;
24685;SDS011;12804;51.176;4.452;2023-04-25T10:37:12;3.97;;;1.00;;
24685;SDS011;12804;51.176;4.452;2023-04-25T10:39:39;4.82;;;1.17;;
24685;SDS011;12804;51.176;4.452;2023-04-25T10:42:06;3.67;;;0.95;;
24685;SDS011;12804;51.176;4.452;2023-04-25T10:44:36;3.53;;;1.27;;
24685;SDS011;12804;51.176;4.452;2023-04-25T10:47:05;4.47;;;1.30;;
24685;SDS011;12804;51.176;4.452;2023-04-25T10:49:36;4.00;;;1.42;;
24685;SDS011;12804;51.176;4.452;2023-04-25T10:54:57;3.72;;;0.90;;
24685;SDS011;12804;51.176;4.452;2023-04-25T11:00:14;6.05;;;1.27;;
24685;SDS011;12804;51.176;4.452;2023-04-25T11:02:45;3.17;;;0.95;;
24685;SDS011;12804;51.176;4.452;2023-04-25T11:05:30;4.78;;;1.40;;
24685;SDS011;12804;51.176;4.452;2023-04-25T11:10:29;4.82;;;1.08;;
24685;SDS011;12804;51.176;4.452;2023-04-25T11:12:59;7.35;;;1.27;;
24685;SDS011;12804;51.176;4.452;2023-04-25T11:15:25;4.57;;;1.08;;
24685;SDS011;12804;51.176;4.452;2023-04-25T11:17:52;10.50;;;1.50;;
24685;SDS011;12804;51.176;4.452;2023-04-25T11:20:18;6.28;;;1.10;;
24685;SDS011;12804;51.176;4.452;2023-04-25T11:22:45;3.30;;;0.90;;
24685;SDS011;12804;51.176;4.452;2023-04-25T11:25:12;3.63;;;0.90;;
24685;SDS011;12804;51.176;4.452;2023-04-25T11:27:53;5.55;;;0.80;;
24685;SDS011;12804;51.176;4.452;2023-04-25T11:30:21;3.92;;;1.20;;
24685;SDS011;12804;51.176;4.452;2023-04-25T11:32:47;3.28;;;0.95;;
24685;SDS011;12804;51.176;4.452;2023-04-25T11:35:13;2.83;;;0.90;;
24685;SDS011;12804;51.176;4.452;2023-04-25T11:37:40;3.33;;;0.70;;
24685;SDS011;12804;51.176;4.452;2023-04-25T11:40:08;3.55;;;0.60;;
24685;SDS011;12804;51.176;4.452;2023-04-25T11:42:43;5.72;;;1.08;;
24685;SDS011;12804;51.176;4.452;2023-04-25T11:45:10;3.83;;;0.95;;
24685;SDS011;12804;51.176;4.452;2023-04-25T11:47:36;4.35;;;0.93;;
24685;SDS011;12804;51.176;4.452;2023-04-25T11:50:03;3.05;;;0.90;;
24685;SDS011;12804;51.176;4.452;2023-04-25T11:52:37;2.15;;;0.90;;
24685;SDS011;12804;51.176;4.452;2023-04-25T11:55:12;1.75;;;1.10;;
24685;SDS011;12804;51.176;4.452;2023-04-25T11:57:40;4.60;;;1.00;;
24685;SDS011;12804;51.176;4.452;2023-04-25T12:02:43;6.03;;;0.98;;
24685;SDS011;12804;51.176;4.452;2023-04-25T12:05:10;5.82;;;0.90;;
24685;SDS011;12804;51.176;4.452;2023-04-25T12:07:37;3.78;;;0.88;;
24685;SDS011;12804;51.176;4.452;2023-04-25T12:10:07;5.35;;;0.80;;
24685;SDS011;12804;51.176;4.452;2023-04-25T12:12:37;4.85;;;1.20;;
24685;SDS011;12804;51.176;4.452;2023-04-25T12:15:08;3.63;;;0.95;;
24685;SDS011;12804;51.176;4.452;2023-04-25T12:17:35;4.35;;;1.00;;
24685;SDS011;12804;51.176;4.452;2023-04-25T12:20:09;3.53;;;1.00;;
24685;SDS011;12804;51.176;4.452;2023-04-25T12:22:40;4.85;;;0.75;;
24685;SDS011;12804;51.176;4.452;2023-04-25T12:25:12;4.85;;;0.90;;
24685;SDS011;12804;51.176;4.452;2023-04-25T12:30:53;3.00;;;1.10;;
24685;SDS011;12804;51.176;4.452;2023-04-25T12:33:23;3.03;;;0.90;;
24685;SDS011;12804;51.176;4.452;2023-04-25T12:35:50;3.20;;;0.98;;
24685;SDS011;12804;51.176;4.452;2023-04-25T12:38:36;3.28;;;0.60;;
24685;SDS011;12804;51.176;4.452;2023-04-25T12:41:05;3.65;;;1.15;;
24685;SDS011;12804;51.176;4.452;2023-04-25T12:43:32;4.32;;;0.90;;
24685;SDS011;12804;51.176;4.452;2023-04-25T12:45:58;3.03;;;0.70;;
24685;SDS011;12804;51.176;4.452;2023-04-25T12:48:24;2.83;;;1.00;;
24685;SDS011;12804;51.176;4.452;2023-04-25T12:50:51;3.13;;;0.80;;
24685;SDS011;12804;51.176;4.452;2023-04-25T12:53:17;5.57;;;1.17;;
24685;SDS011;12804;51.176;4.452;2023-04-25T12:55:44;2.60;;;0.93;;
24685;SDS011;12804;51.176;4.452;2023-04-25T12:58:17;3.28;;;1.02;;
24685;SDS011;12804;51.176;4.452;2023-04-25T13:00:43;6.50;;;1.30;;
24685;SDS011;12804;51.176;4.452;2023-04-25T13:03:10;3.63;;;1.25;;
24685;SDS011;12804;51.176;4.452;2023-04-25T13:05:40;4.18;;;1.30;;
24685;SDS011;12804;51.176;4.452;2023-04-25T13:08:07;3.78;;;1.27;;
24685;SDS011;12804;51.176;4.452;2023-04-25T13:10:33;2.80;;;0.77;;
24685;SDS011;12804;51.176;4.452;2023-04-25T13:12:59;5.90;;;0.98;;
24685;SDS011;12804;51.176;4.452;2023-04-25T13:15:26;4.90;;;0.90;;
24685;SDS011;12804;51.176;4.452;2023-04-25T13:17:52;4.68;;;1.02;;
24685;SDS011;12804;51.176;4.452;2023-04-25T13:20:18;3.50;;;0.82;;
24685;SDS011;12804;51.176;4.452;2023-04-25T13:22:47;1.98;;;0.80;;
24685;SDS011;12804;51.176;4.452;2023-04-25T13:25:13;4.03;;;0.88;;
24685;SDS011;12804;51.176;4.452;2023-04-25T13:27:39;11.45;;;1.10;;
24685;SDS011;12804;51.176;4.452;2023-04-25T13:30:06;3.40;;;1.10;;
24685;SDS011;12804;51.176;4.452;2023-04-25T13:32:36;2.55;;;0.80;;
24685;SDS011;12804;51.176;4.452;2023-04-25T13:35:03;5.40;;;0.90;;
24685;SDS011;12804;51.176;4.452;2023-04-25T13:37:30;2.47;;;0.93;;
24685;SDS011;12804;51.176;4.452;2023-04-25T13:39:58;5.72;;;1.10;;
24685;SDS011;12804;51.176;4.452;2023-04-25T13:42:25;4.10;;;1.15;;
24685;SDS011;12804;51.176;4.452;2023-04-25T13:44:51;4.13;;;1.15;;
24685;SDS011;12804;51.176;4.452;2023-04-25T13:47:17;4.15;;;0.90;;
24685;SDS011;12804;51.176;4.452;2023-04-25T13:49:43;3.13;;;0.73;;
24685;SDS011;12804;51.176;4.452;2023-04-25T13:52:08;4.20;;;0.88;;
24685;SDS011;12804;51.176;4.452;2023-04-25T13:54:34;4.22;;;0.90;;
24685;SDS011;12804;51.176;4.452;2023-04-25T13:57:00;3.92;;;0.95;;
24685;SDS011;12804;51.176;4.452;2023-04-25T13:59:26;5.10;;;1.10;;
24685;SDS011;12804;51.176;4.452;2023-04-25T14:01:52;4.97;;;0.80;;
24685;SDS011;12804;51.176;4.452;2023-04-25T14:04:18;4.07;;;0.90;;
24685;SDS011;12804;51.176;4.452;2023-04-25T14:06:44;3.50;;;0.70;;
24685;SDS011;12804;51.176;4.452;2023-04-25T14:09:10;2.72;;;0.60;;
24685;SDS011;12804;51.176;4.452;2023-04-25T14:11:40;3.22;;;1.00;;
24685;SDS011;12804;51.176;4.452;2023-04-25T14:14:06;2.75;;;0.90;;
24685;SDS011;12804;51.176;4.452;2023-04-25T14:16:33;3.72;;;0.82;;
24685;SDS011;12804;51.176;4.452;2023-04-25T14:18:59;2.92;;;0.60;;
24685;SDS011;12804;51.176;4.452;2023-04-25T14:21:25;3.50;;;0.98;;
24685;SDS011;12804;51.176;4.452;2023-04-25T14:23:52;4.53;;;0.77;;
24685;SDS011;12804;51.176;4.452;2023-04-25T14:26:18;2.22;;;0.80;;
24685;SDS011;12804;51.176;4.452;2023-04-25T14:28:44;2.90;;;0.80;;
24685;SDS011;12804;51.176;4.452;2023-04-25T14:31:09;2.90;;;0.70;;
24685;SDS011;12804;51.176;4.452;2023-04-25T14:33:35;4.60;;;1.08;;
24685;SDS011;12804;51.176;4.452;2023-04-25T14:36:04;4.03;;;0.88;;
24685;SDS011;12804;51.176;4.452;2023-04-25T14:38:30;3.28;;;1.05;;
24685;SDS011;12804;51.176;4.452;2023-04-25T14:40:56;3.38;;;0.70;;
24685;SDS011;12804;51.176;4.452;2023-04-25T14:43:22;2.08;;;0.90;;
24685;SDS011;12804;51.176;4.452;2023-04-25T14:45:48;3.05;;;0.90;;
24685;SDS011;12804;51.176;4.452;2023-04-25T14:48:14;3.75;;;1.13;;
24685;SDS011;12804;51.176;4.452;2023-04-25T14:50:40;5.55;;;1.00;;
24685;SDS011;12804;51.176;4.452;2023-04-25T14:53:06;3.63;;;0.95;;
24685;SDS011;12804;51.176;4.452;2023-04-25T14:55:31;2.38;;;1.00;;
24685;SDS011;12804;51.176;4.452;2023-04-25T14:57:57;4.55;;;1.38;;
24685;SDS011;12804;51.176;4.452;2023-04-25T15:00:23;5.10;;;1.20;;
24685;SDS011;12804;51.176;4.452;2023-04-25T15:02:50;5.15;;;0.98;;
24685;SDS011;12804;51.176;4.452;2023-04-25T15:05:16;4.00;;;1.17;;
24685;SDS011;12804;51.176;4.452;2023-04-25T15:07:43;3.05;;;0.93;;
24685;SDS011;12804;51.176;4.452;2023-04-25T15:10:09;3.70;;;1.00;;
24685;SDS011;12804;51.176;4.452;2023-04-25T15:12:41;6.97;;;1.35;;
24685;SDS011;12804;51.176;4.452;2023-04-25T15:15:08;5.05;;;1.02;;
24685;SDS011;12804;51.176;4.452;2023-04-25T15:17:38;6.80;;;1.00;;